sensor_id;sensor_type;location;lat;lon;timestamp;P1;durP1;ratioP1;P2;durP2;ratioP2
5674;SDS011;2860;54.284;10.158;2023-05-16T00:00:32;6.40;;;6.00;;
5674;SDS011;2860;54.284;10.158;2023-05-16T00:02:59;6.63;;;6.22;;
5674;SDS011;2860;54.284;10.158;2023-05-16T00:05:25;6.30;;;5.50;;
5674;SDS011;2860;54.284;10.158;2023-05-16T00:07:51;5.72;;;5.45;;
5674;SDS011;2860;54.284;10.158;2023-05-16T00:10:16;9.82;;;6.07;;
5674;SDS011;2860;54.284;10.158;2023-05-16T00:12:42;5.65;;;5.25;;
5674;SDS011;2860;54.284;10.158;2023-05-16T00:15:09;5.53;;;5.22;;
5674;SDS011;2860;54.284;10.158;2023-05-16T00:17:36;5.40;;;5.05;;
5674;SDS011;2860;54.284;10.158;2023-05-16T00:20:03;5.15;;;4.90;;
5674;SDS011;2860;54.284;10.158;2023-05-16T00:22:35;8.52;;;5.85;;
5674;SDS011;2860;54.284;10.158;2023-05-16T00:25:01;5.10;;;4.82;;
5674;SDS011;2860;54.284;10.158;2023-05-16T00:27:26;5.18;;;4.88;;
5674;SDS011;2860;54.284;10.158;2023-05-16T00:29:52;4.45;;;4.25;;
5674;SDS011;2860;54.284;10.158;2023-05-16T00:32:17;4.30;;;4.00;;
5674;SDS011;2860;54.284;10.158;2023-05-16T00:34:43;4.50;;;4.20;;
5674;SDS011;2860;54.284;10.158;2023-05-16T00:37:08;3.97;;;3.78;;
5674;SDS011;2860;54.284;10.158;2023-05-16T00:39:34;5.80;;;4.00;;
5674;SDS011;2860;54.284;10.158;2023-05-16T00:42:00;4.00;;;3.50;;
5674;SDS011;2860;54.284;10.158;2023-05-16T00:44:26;6.97;;;3.70;;
5674;SDS011;2860;54.284;10.158;2023-05-16T00:46:52;4.30;;;3.97;;
5674;SDS011;2860;54.284;10.158;2023-05-16T00:49:18;4.70;;;3.90;;
5674;SDS011;2860;54.284;10.158;2023-05-16T00:51:43;3.88;;;3.58;;
5674;SDS011;2860;54.284;10.158;2023-05-16T00:54:09;3.88;;;3.53;;
5674;SDS011;2860;54.284;10.158;2023-05-16T00:56:36;3.58;;;3.38;;
5674;SDS011;2860;54.284;10.158;2023-05-16T00:59:01;3.53;;;3.33;;
5674;SDS011;2860;54.284;10.158;2023-05-16T01:01:27;3.78;;;3.47;;
5674;SDS011;2860;54.284;10.158;2023-05-16T01:03:53;5.50;;;3.85;;
5674;SDS011;2860;54.284;10.158;2023-05-16T01:06:19;3.65;;;3.55;;
5674;SDS011;2860;54.284;10.158;2023-05-16T01:08:45;3.85;;;3.38;;
5674;SDS011;2860;54.284;10.158;2023-05-16T01:16:21;3.65;;;3.33;;
5674;SDS011;2860;54.284;10.158;2023-05-16T01:27:35;4.63;;;3.75;;
5674;SDS011;2860;54.284;10.158;2023-05-16T01:30:10;3.35;;;3.25;;
5674;SDS011;2860;54.284;10.158;2023-05-16T01:32:41;4.20;;;3.83;;
5674;SDS011;2860;54.284;10.158;2023-05-16T01:35:09;3.63;;;3.33;;
5674;SDS011;2860;54.284;10.158;2023-05-16T01:40:25;2.90;;;2.70;;
5674;SDS011;2860;54.284;10.158;2023-05-16T01:43:00;4.53;;;2.72;;
5674;SDS011;2860;54.284;10.158;2023-05-16T01:45:30;4.40;;;2.28;;
5674;SDS011;2860;54.284;10.158;2023-05-16T01:48:04;7.75;;;3.08;;
5674;SDS011;2860;54.284;10.158;2023-05-16T01:50:44;8.65;;;2.95;;
5674;SDS011;2860;54.284;10.158;2023-05-16T01:53:18;3.30;;;2.80;;
5674;SDS011;2860;54.284;10.158;2023-05-16T01:55:48;10.27;;;2.47;;
5674;SDS011;2860;54.284;10.158;2023-05-16T01:58:17;6.97;;;2.40;;
5674;SDS011;2860;54.284;10.158;2023-05-16T02:00:45;10.43;;;3.10;;
5674;SDS011;2860;54.284;10.158;2023-05-16T02:03:11;11.82;;;2.92;;
5674;SDS011;2860;54.284;10.158;2023-05-16T02:05:36;3.00;;;1.83;;
5674;SDS011;2860;54.284;10.158;2023-05-16T02:08:02;7.15;;;2.53;;
5674;SDS011;2860;54.284;10.158;2023-05-16T02:10:28;9.40;;;2.47;;
5674;SDS011;2860;54.284;10.158;2023-05-16T02:12:54;6.22;;;1.98;;
5674;SDS011;2860;54.284;10.158;2023-05-16T02:15:19;6.47;;;2.20;;
5674;SDS011;2860;54.284;10.158;2023-05-16T02:17:45;10.27;;;2.50;;
5674;SDS011;2860;54.284;10.158;2023-05-16T02:20:11;8.48;;;2.40;;
5674;SDS011;2860;54.284;10.158;2023-05-16T02:22:37;6.28;;;2.65;;
5674;SDS011;2860;54.284;10.158;2023-05-16T02:25:03;2.30;;;2.20;;
5674;SDS011;2860;54.284;10.158;2023-05-16T02:27:30;4.68;;;2.10;;
5674;SDS011;2860;54.284;10.158;2023-05-16T02:29:56;10.38;;;3.40;;
5674;SDS011;2860;54.284;10.158;2023-05-16T02:32:21;9.43;;;2.75;;
5674;SDS011;2860;54.284;10.158;2023-05-16T02:34:47;9.77;;;2.60;;
5674;SDS011;2860;54.284;10.158;2023-05-16T02:37:12;3.75;;;3.28;;
5674;SDS011;2860;54.284;10.158;2023-05-16T02:39:38;6.90;;;2.00;;
5674;SDS011;2860;54.284;10.158;2023-05-16T02:42:05;8.43;;;2.53;;
5674;SDS011;2860;54.284;10.158;2023-05-16T02:44:31;13.35;;;2.88;;
5674;SDS011;2860;54.284;10.158;2023-05-16T02:46:57;4.13;;;1.92;;
5674;SDS011;2860;54.284;10.158;2023-05-16T02:49:22;13.85;;;2.40;;
5674;SDS011;2860;54.284;10.158;2023-05-16T02:51:48;14.07;;;2.40;;
5674;SDS011;2860;54.284;10.158;2023-05-16T02:54:13;10.15;;;2.13;;
5674;SDS011;2860;54.284;10.158;2023-05-16T02:56:39;6.88;;;3.67;;
5674;SDS011;2860;54.284;10.158;2023-05-16T02:59:05;7.43;;;2.30;;
5674;SDS011;2860;54.284;10.158;2023-05-16T03:01:30;10.73;;;2.47;;
5674;SDS011;2860;54.284;10.158;2023-05-16T03:03:56;12.55;;;3.10;;
5674;SDS011;2860;54.284;10.158;2023-05-16T03:06:21;8.68;;;2.85;;
5674;SDS011;2860;54.284;10.158;2023-05-16T03:08:47;11.02;;;2.55;;
5674;SDS011;2860;54.284;10.158;2023-05-16T03:11:13;8.48;;;2.45;;
5674;SDS011;2860;54.284;10.158;2023-05-16T03:13:40;7.70;;;2.35;;
5674;SDS011;2860;54.284;10.158;2023-05-16T03:16:06;11.40;;;2.90;;
5674;SDS011;2860;54.284;10.158;2023-05-16T03:18:31;9.82;;;2.28;;
5674;SDS011;2860;54.284;10.158;2023-05-16T03:20:57;10.00;;;2.42;;
5674;SDS011;2860;54.284;10.158;2023-05-16T03:23:23;12.00;;;3.13;;
5674;SDS011;2860;54.284;10.158;2023-05-16T03:25:49;9.00;;;2.92;;
5674;SDS011;2860;54.284;10.158;2023-05-16T03:28:15;6.70;;;2.60;;
5674;SDS011;2860;54.284;10.158;2023-05-16T03:30:42;6.60;;;2.40;;
5674;SDS011;2860;54.284;10.158;2023-05-16T03:33:07;11.40;;;2.90;;
5674;SDS011;2860;54.284;10.158;2023-05-16T03:35:33;8.25;;;1.75;;
5674;SDS011;2860;54.284;10.158;2023-05-16T03:38:00;9.98;;;2.42;;
5674;SDS011;2860;54.284;10.158;2023-05-16T03:40:26;10.35;;;2.13;;
5674;SDS011;2860;54.284;10.158;2023-05-16T03:42:51;13.38;;;3.38;;
5674;SDS011;2860;54.284;10.158;2023-05-16T03:45:17;14.95;;;2.20;;
5674;SDS011;2860;54.284;10.158;2023-05-16T03:47:42;5.57;;;1.63;;
5674;SDS011;2860;54.284;10.158;2023-05-16T03:50:08;7.60;;;2.45;;
5674;SDS011;2860;54.284;10.158;2023-05-16T03:52:34;18.40;;;2.67;;
5674;SDS011;2860;54.284;10.158;2023-05-16T03:55:00;11.77;;;2.75;;
5674;SDS011;2860;54.284;10.158;2023-05-16T03:57:29;13.13;;;2.65;;
5674;SDS011;2860;54.284;10.158;2023-05-16T03:59:55;12.40;;;1.98;;
5674;SDS011;2860;54.284;10.158;2023-05-16T04:02:21;10.65;;;2.83;;
5674;SDS011;2860;54.284;10.158;2023-05-16T04:04:46;6.70;;;2.38;;
5674;SDS011;2860;54.284;10.158;2023-05-16T04:07:12;11.45;;;2.60;;
5674;SDS011;2860;54.284;10.158;2023-05-16T04:09:37;16.90;;;2.85;;
5674;SDS011;2860;54.284;10.158;2023-05-16T04:12:03;11.13;;;3.47;;
5674;SDS011;2860;54.284;10.158;2023-05-16T04:14:29;11.75;;;3.60;;
5674;SDS011;2860;54.284;10.158;2023-05-16T04:16:56;5.88;;;2.45;;
5674;SDS011;2860;54.284;10.158;2023-05-16T04:19:21;9.43;;;1.92;;
5674;SDS011;2860;54.284;10.158;2023-05-16T04:21:47;14.23;;;2.33;;
5674;SDS011;2860;54.284;10.158;2023-05-16T04:24:12;11.93;;;2.03;;
5674;SDS011;2860;54.284;10.158;2023-05-16T04:26:38;12.75;;;2.33;;
5674;SDS011;2860;54.284;10.158;2023-05-16T04:29:03;9.00;;;2.30;;
5674;SDS011;2860;54.284;10.158;2023-05-16T04:31:29;6.43;;;2.20;;
5674;SDS011;2860;54.284;10.158;2023-05-16T04:33:55;12.10;;;3.42;;
5674;SDS011;2860;54.284;10.158;2023-05-16T04:36:21;16.30;;;2.25;;
5674;SDS011;2860;54.284;10.158;2023-05-16T04:38:47;12.70;;;2.60;;
5674;SDS011;2860;54.284;10.158;2023-05-16T04:41:13;14.13;;;2.47;;
5674;SDS011;2860;54.284;10.158;2023-05-16T04:43:38;11.55;;;2.63;;
5674;SDS011;2860;54.284;10.158;2023-05-16T04:46:04;12.82;;;4.90;;
5674;SDS011;2860;54.284;10.158;2023-05-16T04:48:31;8.02;;;2.40;;
5674;SDS011;2860;54.284;10.158;2023-05-16T04:50:57;11.20;;;2.30;;
5674;SDS011;2860;54.284;10.158;2023-05-16T04:53:23;11.05;;;2.45;;
5674;SDS011;2860;54.284;10.158;2023-05-16T04:55:48;13.05;;;3.17;;
5674;SDS011;2860;54.284;10.158;2023-05-16T04:58:14;12.65;;;2.20;;
5674;SDS011;2860;54.284;10.158;2023-05-16T05:00:40;10.23;;;2.67;;
5674;SDS011;2860;54.284;10.158;2023-05-16T05:03:05;9.65;;;2.03;;
5674;SDS011;2860;54.284;10.158;2023-05-16T05:05:31;11.38;;;2.38;;
5674;SDS011;2860;54.284;10.158;2023-05-16T05:07:57;11.02;;;2.10;;
5674;SDS011;2860;54.284;10.158;2023-05-16T05:10:23;13.52;;;2.75;;
5674;SDS011;2860;54.284;10.158;2023-05-16T05:12:48;10.30;;;1.60;;
5674;SDS011;2860;54.284;10.158;2023-05-16T05:15:14;12.88;;;2.13;;
5674;SDS011;2860;54.284;10.158;2023-05-16T05:17:40;6.63;;;1.60;;
5674;SDS011;2860;54.284;10.158;2023-05-16T05:20:05;13.70;;;3.85;;
5674;SDS011;2860;54.284;10.158;2023-05-16T05:22:32;10.65;;;2.17;;
5674;SDS011;2860;54.284;10.158;2023-05-16T05:24:58;6.63;;;1.80;;
5674;SDS011;2860;54.284;10.158;2023-05-16T05:27:23;10.80;;;2.33;;
5674;SDS011;2860;54.284;10.158;2023-05-16T05:29:49;6.32;;;2.55;;
5674;SDS011;2860;54.284;10.158;2023-05-16T05:32:14;9.52;;;2.38;;
5674;SDS011;2860;54.284;10.158;2023-05-16T05:34:40;12.80;;;2.63;;
5674;SDS011;2860;54.284;10.158;2023-05-16T05:37:05;5.28;;;1.25;;
5674;SDS011;2860;54.284;10.158;2023-05-16T05:39:31;8.50;;;2.00;;
5674;SDS011;2860;54.284;10.158;2023-05-16T05:41:56;8.95;;;2.60;;
5674;SDS011;2860;54.284;10.158;2023-05-16T05:44:22;12.77;;;2.13;;
5674;SDS011;2860;54.284;10.158;2023-05-16T05:46:48;8.38;;;1.75;;
5674;SDS011;2860;54.284;10.158;2023-05-16T05:49:13;17.20;;;1.95;;
5674;SDS011;2860;54.284;10.158;2023-05-16T05:51:39;10.65;;;2.08;;
5674;SDS011;2860;54.284;10.158;2023-05-16T05:54:05;7.03;;;1.92;;
5674;SDS011;2860;54.284;10.158;2023-05-16T05:56:31;6.63;;;1.88;;
5674;SDS011;2860;54.284;10.158;2023-05-16T05:58:57;4.75;;;1.55;;
5674;SDS011;2860;54.284;10.158;2023-05-16T06:01:22;9.65;;;1.60;;
5674;SDS011;2860;54.284;10.158;2023-05-16T06:03:48;6.22;;;1.30;;
5674;SDS011;2860;54.284;10.158;2023-05-16T06:06:14;10.32;;;1.63;;
5674;SDS011;2860;54.284;10.158;2023-05-16T06:08:39;3.35;;;1.58;;
5674;SDS011;2860;54.284;10.158;2023-05-16T06:11:05;5.93;;;1.35;;
5674;SDS011;2860;54.284;10.158;2023-05-16T06:13:31;12.85;;;1.67;;
5674;SDS011;2860;54.284;10.158;2023-05-16T06:15:56;11.20;;;1.40;;
5674;SDS011;2860;54.284;10.158;2023-05-16T06:18:22;10.52;;;1.63;;
5674;SDS011;2860;54.284;10.158;2023-05-16T06:20:47;6.18;;;1.63;;
5674;SDS011;2860;54.284;10.158;2023-05-16T06:23:13;8.07;;;1.05;;
5674;SDS011;2860;54.284;10.158;2023-05-16T06:25:38;10.77;;;1.73;;
5674;SDS011;2860;54.284;10.158;2023-05-16T06:28:04;5.47;;;1.15;;
5674;SDS011;2860;54.284;10.158;2023-05-16T06:30:29;6.75;;;2.13;;
5674;SDS011;2860;54.284;10.158;2023-05-16T06:32:55;6.80;;;2.03;;
5674;SDS011;2860;54.284;10.158;2023-05-16T06:35:21;10.68;;;1.27;;
5674;SDS011;2860;54.284;10.158;2023-05-16T06:37:47;13.55;;;1.23;;
5674;SDS011;2860;54.284;10.158;2023-05-16T06:40:12;2.83;;;1.00;;
5674;SDS011;2860;54.284;10.158;2023-05-16T06:42:38;7.28;;;1.40;;
5674;SDS011;2860;54.284;10.158;2023-05-16T06:45:04;5.35;;;1.10;;
5674;SDS011;2860;54.284;10.158;2023-05-16T06:47:30;13.13;;;1.15;;
5674;SDS011;2860;54.284;10.158;2023-05-16T06:49:56;6.25;;;1.42;;
5674;SDS011;2860;54.284;10.158;2023-05-16T06:52:21;6.95;;;1.17;;
5674;SDS011;2860;54.284;10.158;2023-05-16T06:54:47;6.53;;;1.23;;
5674;SDS011;2860;54.284;10.158;2023-05-16T06:57:12;8.00;;;1.17;;
5674;SDS011;2860;54.284;10.158;2023-05-16T06:59:38;8.25;;;1.30;;
5674;SDS011;2860;54.284;10.158;2023-05-16T07:02:04;8.52;;;1.50;;
5674;SDS011;2860;54.284;10.158;2023-05-16T07:04:30;4.63;;;0.90;;
5674;SDS011;2860;54.284;10.158;2023-05-16T07:06:56;8.23;;;1.23;;
5674;SDS011;2860;54.284;10.158;2023-05-16T07:09:21;3.90;;;1.00;;
5674;SDS011;2860;54.284;10.158;2023-05-16T07:11:47;8.20;;;2.13;;
5674;SDS011;2860;54.284;10.158;2023-05-16T07:14:13;17.10;;;2.03;;
5674;SDS011;2860;54.284;10.158;2023-05-16T07:16:38;3.63;;;1.15;;
5674;SDS011;2860;54.284;10.158;2023-05-16T07:19:04;6.68;;;1.20;;
5674;SDS011;2860;54.284;10.158;2023-05-16T07:21:29;6.20;;;1.00;;
5674;SDS011;2860;54.284;10.158;2023-05-16T07:23:55;4.45;;;0.90;;
5674;SDS011;2860;54.284;10.158;2023-05-16T07:26:21;5.43;;;1.02;;
5674;SDS011;2860;54.284;10.158;2023-05-16T07:28:50;5.60;;;1.48;;
5674;SDS011;2860;54.284;10.158;2023-05-16T07:31:16;9.15;;;1.40;;
5674;SDS011;2860;54.284;10.158;2023-05-16T07:33:43;5.68;;;1.00;;
5674;SDS011;2860;54.284;10.158;2023-05-16T07:36:10;4.72;;;1.00;;
5674;SDS011;2860;54.284;10.158;2023-05-16T07:38:36;4.32;;;1.23;;
5674;SDS011;2860;54.284;10.158;2023-05-16T07:41:02;2.60;;;1.17;;
5674;SDS011;2860;54.284;10.158;2023-05-16T07:43:27;2.08;;;0.80;;
5674;SDS011;2860;54.284;10.158;2023-05-16T07:45:53;3.22;;;1.10;;
5674;SDS011;2860;54.284;10.158;2023-05-16T07:48:19;4.30;;;1.17;;
5674;SDS011;2860;54.284;10.158;2023-05-16T07:50:45;3.13;;;2.10;;
5674;SDS011;2860;54.284;10.158;2023-05-16T07:53:10;6.20;;;2.00;;
5674;SDS011;2860;54.284;10.158;2023-05-16T07:55:36;2.50;;;0.90;;
5674;SDS011;2860;54.284;10.158;2023-05-16T07:58:02;3.05;;;0.95;;
5674;SDS011;2860;54.284;10.158;2023-05-16T08:00:28;4.45;;;1.20;;
5674;SDS011;2860;54.284;10.158;2023-05-16T08:02:53;5.80;;;1.33;;
5674;SDS011;2860;54.284;10.158;2023-05-16T08:05:19;6.07;;;1.23;;
5674;SDS011;2860;54.284;10.158;2023-05-16T08:07:45;4.85;;;1.10;;
5674;SDS011;2860;54.284;10.158;2023-05-16T08:10:10;4.03;;;1.50;;
5674;SDS011;2860;54.284;10.158;2023-05-16T08:12:36;8.95;;;1.45;;
5674;SDS011;2860;54.284;10.158;2023-05-16T08:15:02;5.05;;;1.58;;
5674;SDS011;2860;54.284;10.158;2023-05-16T08:17:28;4.43;;;1.63;;
5674;SDS011;2860;54.284;10.158;2023-05-16T08:19:53;9.73;;;1.27;;
5674;SDS011;2860;54.284;10.158;2023-05-16T08:22:20;8.20;;;1.23;;
5674;SDS011;2860;54.284;10.158;2023-05-16T08:24:45;9.52;;;1.13;;
5674;SDS011;2860;54.284;10.158;2023-05-16T08:27:11;7.47;;;1.27;;
5674;SDS011;2860;54.284;10.158;2023-05-16T08:29:36;9.25;;;1.50;;
5674;SDS011;2860;54.284;10.158;2023-05-16T08:32:02;3.58;;;1.35;;
5674;SDS011;2860;54.284;10.158;2023-05-16T08:34:29;3.67;;;1.00;;
5674;SDS011;2860;54.284;10.158;2023-05-16T08:36:55;3.38;;;1.40;;
5674;SDS011;2860;54.284;10.158;2023-05-16T08:39:21;7.60;;;1.05;;
5674;SDS011;2860;54.284;10.158;2023-05-16T08:41:47;7.93;;;1.58;;
5674;SDS011;2860;54.284;10.158;2023-05-16T08:44:12;2.97;;;1.02;;
5674;SDS011;2860;54.284;10.158;2023-05-16T08:46:45;7.90;;;1.10;;
5674;SDS011;2860;54.284;10.158;2023-05-16T08:49:15;6.47;;;1.08;;
5674;SDS011;2860;54.284;10.158;2023-05-16T08:51:42;4.10;;;0.88;;
5674;SDS011;2860;54.284;10.158;2023-05-16T08:54:11;8.20;;;1.52;;
5674;SDS011;2860;54.284;10.158;2023-05-16T08:56:37;10.75;;;1.30;;
5674;SDS011;2860;54.284;10.158;2023-05-16T08:59:05;4.70;;;1.40;;
5674;SDS011;2860;54.284;10.158;2023-05-16T09:01:31;4.72;;;1.25;;
5674;SDS011;2860;54.284;10.158;2023-05-16T09:03:57;8.40;;;2.13;;
5674;SDS011;2860;54.284;10.158;2023-05-16T09:06:23;1.90;;;0.95;;
5674;SDS011;2860;54.284;10.158;2023-05-16T09:08:49;7.07;;;1.40;;
5674;SDS011;2860;54.284;10.158;2023-05-16T09:11:14;5.32;;;1.15;;
5674;SDS011;2860;54.284;10.158;2023-05-16T09:13:40;7.25;;;2.05;;
5674;SDS011;2860;54.284;10.158;2023-05-16T09:16:12;6.55;;;1.40;;
5674;SDS011;2860;54.284;10.158;2023-05-16T09:18:39;6.78;;;1.15;;
5674;SDS011;2860;54.284;10.158;2023-05-16T09:21:10;6.30;;;1.10;;
5674;SDS011;2860;54.284;10.158;2023-05-16T09:23:36;6.35;;;1.40;;
5674;SDS011;2860;54.284;10.158;2023-05-16T09:26:03;4.70;;;1.38;;
5674;SDS011;2860;54.284;10.158;2023-05-16T09:28:31;4.78;;;1.73;;
5674;SDS011;2860;54.284;10.158;2023-05-16T09:30:57;3.42;;;1.25;;
5674;SDS011;2860;54.284;10.158;2023-05-16T09:33:26;5.78;;;1.42;;
5674;SDS011;2860;54.284;10.158;2023-05-16T09:35:59;3.45;;;1.60;;
5674;SDS011;2860;54.284;10.158;2023-05-16T09:38:26;5.57;;;1.15;;
5674;SDS011;2860;54.284;10.158;2023-05-16T09:40:53;6.15;;;1.15;;
5674;SDS011;2860;54.284;10.158;2023-05-16T09:43:21;3.35;;;1.08;;
5674;SDS011;2860;54.284;10.158;2023-05-16T09:45:49;5.18;;;1.40;;
5674;SDS011;2860;54.284;10.158;2023-05-16T09:48:14;6.38;;;1.27;;
5674;SDS011;2860;54.284;10.158;2023-05-16T09:50:45;3.47;;;1.40;;
5674;SDS011;2860;54.284;10.158;2023-05-16T09:53:13;10.02;;;1.48;;
5674;SDS011;2860;54.284;10.158;2023-05-16T09:55:40;3.92;;;1.70;;
5674;SDS011;2860;54.284;10.158;2023-05-16T09:58:06;2.65;;;1.40;;
5674;SDS011;2860;54.284;10.158;2023-05-16T10:00:32;5.20;;;1.27;;
5674;SDS011;2860;54.284;10.158;2023-05-16T10:02:58;5.80;;;1.13;;
5674;SDS011;2860;54.284;10.158;2023-05-16T10:05:27;11.20;;;2.35;;
5674;SDS011;2860;54.284;10.158;2023-05-16T10:07:55;10.25;;;1.40;;
5674;SDS011;2860;54.284;10.158;2023-05-16T10:10:21;9.02;;;1.90;;
5674;SDS011;2860;54.284;10.158;2023-05-16T10:12:48;9.75;;;2.53;;
5674;SDS011;2860;54.284;10.158;2023-05-16T10:15:15;13.10;;;2.28;;
5674;SDS011;2860;54.284;10.158;2023-05-16T10:17:42;13.18;;;2.35;;
5674;SDS011;2860;54.284;10.158;2023-05-16T10:20:09;13.18;;;4.53;;
5674;SDS011;2860;54.284;10.158;2023-05-16T10:22:38;12.63;;;2.80;;
5674;SDS011;2860;54.284;10.158;2023-05-16T10:25:08;9.23;;;1.75;;
5674;SDS011;2860;54.284;10.158;2023-05-16T10:27:39;4.20;;;1.38;;
5674;SDS011;2860;54.284;10.158;2023-05-16T10:30:06;3.10;;;1.75;;
5674;SDS011;2860;54.284;10.158;2023-05-16T10:32:33;3.58;;;1.00;;
5674;SDS011;2860;54.284;10.158;2023-05-16T10:35:02;10.32;;;1.35;;
5674;SDS011;2860;54.284;10.158;2023-05-16T10:37:28;7.07;;;2.13;;
5674;SDS011;2860;54.284;10.158;2023-05-16T10:39:56;6.20;;;1.27;;
5674;SDS011;2860;54.284;10.158;2023-05-16T10:42:23;3.97;;;1.23;;
5674;SDS011;2860;54.284;10.158;2023-05-16T10:44:52;4.85;;;1.15;;
5674;SDS011;2860;54.284;10.158;2023-05-16T10:47:20;7.57;;;2.08;;
5674;SDS011;2860;54.284;10.158;2023-05-16T10:49:46;7.00;;;1.23;;
5674;SDS011;2860;54.284;10.158;2023-05-16T10:52:11;5.78;;;1.75;;
5674;SDS011;2860;54.284;10.158;2023-05-16T10:54:42;20.85;;;1.20;;
5674;SDS011;2860;54.284;10.158;2023-05-16T10:57:21;4.55;;;1.23;;
5674;SDS011;2860;54.284;10.158;2023-05-16T10:59:48;4.65;;;1.30;;
5674;SDS011;2860;54.284;10.158;2023-05-16T11:04:55;3.13;;;1.63;;
5674;SDS011;2860;54.284;10.158;2023-05-16T11:07:24;6.75;;;1.30;;
5674;SDS011;2860;54.284;10.158;2023-05-16T11:10:06;5.80;;;0.95;;
5674;SDS011;2860;54.284;10.158;2023-05-16T11:12:48;6.00;;;1.23;;
5674;SDS011;2860;54.284;10.158;2023-05-16T11:15:16;8.35;;;2.35;;
5674;SDS011;2860;54.284;10.158;2023-05-16T11:17:44;7.50;;;1.08;;
5674;SDS011;2860;54.284;10.158;2023-05-16T11:20:29;17.70;;;1.98;;
5674;SDS011;2860;54.284;10.158;2023-05-16T11:25:44;4.95;;;1.15;;
5674;SDS011;2860;54.284;10.158;2023-05-16T11:28:11;7.47;;;1.50;;
5674;SDS011;2860;54.284;10.158;2023-05-16T11:30:43;12.02;;;2.05;;
5674;SDS011;2860;54.284;10.158;2023-05-16T11:33:10;4.80;;;1.27;;
5674;SDS011;2860;54.284;10.158;2023-05-16T11:35:38;11.63;;;1.63;;
5674;SDS011;2860;54.284;10.158;2023-05-16T11:38:04;4.53;;;0.82;;
5674;SDS011;2860;54.284;10.158;2023-05-16T11:40:29;5.47;;;1.25;;
5674;SDS011;2860;54.284;10.158;2023-05-16T11:42:58;4.63;;;1.27;;
5674;SDS011;2860;54.284;10.158;2023-05-16T11:45:27;6.70;;;1.38;;
5674;SDS011;2860;54.284;10.158;2023-05-16T11:47:52;8.63;;;1.73;;
5674;SDS011;2860;54.284;10.158;2023-05-16T11:50:19;4.00;;;1.67;;
5674;SDS011;2860;54.284;10.158;2023-05-16T11:52:47;5.90;;;1.00;;
5674;SDS011;2860;54.284;10.158;2023-05-16T11:55:15;3.53;;;1.65;;
5674;SDS011;2860;54.284;10.158;2023-05-16T11:57:42;6.90;;;1.40;;
5674;SDS011;2860;54.284;10.158;2023-05-16T12:00:13;3.47;;;1.33;;
5674;SDS011;2860;54.284;10.158;2023-05-16T12:02:40;8.07;;;1.63;;
5674;SDS011;2860;54.284;10.158;2023-05-16T12:05:07;6.50;;;1.00;;
5674;SDS011;2860;54.284;10.158;2023-05-16T12:07:37;5.72;;;1.48;;
5674;SDS011;2860;54.284;10.158;2023-05-16T12:10:08;5.78;;;1.33;;
5674;SDS011;2860;54.284;10.158;2023-05-16T12:12:36;5.32;;;1.10;;
5674;SDS011;2860;54.284;10.158;2023-05-16T12:15:04;2.78;;;1.60;;
5674;SDS011;2860;54.284;10.158;2023-05-16T12:17:32;4.95;;;0.90;;
5674;SDS011;2860;54.284;10.158;2023-05-16T12:19:59;4.68;;;1.10;;
5674;SDS011;2860;54.284;10.158;2023-05-16T12:22:25;5.93;;;1.08;;
5674;SDS011;2860;54.284;10.158;2023-05-16T12:24:51;4.30;;;0.70;;
5674;SDS011;2860;54.284;10.158;2023-05-16T12:27:25;0.95;;;0.60;;
5674;SDS011;2860;54.284;10.158;2023-05-16T12:29:52;4.50;;;1.15;;
5674;SDS011;2860;54.284;10.158;2023-05-16T12:32:18;3.33;;;1.00;;
5674;SDS011;2860;54.284;10.158;2023-05-16T12:34:50;8.63;;;0.90;;
5674;SDS011;2860;54.284;10.158;2023-05-16T12:37:17;5.03;;;1.10;;
5674;SDS011;2860;54.284;10.158;2023-05-16T12:39:43;4.28;;;1.02;;
5674;SDS011;2860;54.284;10.158;2023-05-16T12:42:11;1.42;;;1.33;;
5674;SDS011;2860;54.284;10.158;2023-05-16T12:44:37;1.33;;;0.93;;
5674;SDS011;2860;54.284;10.158;2023-05-16T12:47:03;4.35;;;0.70;;
5674;SDS011;2860;54.284;10.158;2023-05-16T12:49:36;2.17;;;1.00;;
5674;SDS011;2860;54.284;10.158;2023-05-16T12:52:08;7.10;;;1.27;;
5674;SDS011;2860;54.284;10.158;2023-05-16T12:54:42;7.95;;;1.63;;
5674;SDS011;2860;54.284;10.158;2023-05-16T12:57:08;7.97;;;1.73;;
5674;SDS011;2860;54.284;10.158;2023-05-16T12:59:34;1.48;;;0.65;;
5674;SDS011;2860;54.284;10.158;2023-05-16T13:01:59;4.28;;;1.05;;
5674;SDS011;2860;54.284;10.158;2023-05-16T13:04:25;8.35;;;1.10;;
5674;SDS011;2860;54.284;10.158;2023-05-16T13:06:51;2.33;;;1.10;;
5674;SDS011;2860;54.284;10.158;2023-05-16T13:09:17;6.63;;;1.00;;
5674;SDS011;2860;54.284;10.158;2023-05-16T13:11:43;6.10;;;1.50;;
5674;SDS011;2860;54.284;10.158;2023-05-16T13:14:08;4.15;;;1.30;;
5674;SDS011;2860;54.284;10.158;2023-05-16T13:16:34;6.60;;;0.90;;
5674;SDS011;2860;54.284;10.158;2023-05-16T13:18:59;8.77;;;1.30;;
5674;SDS011;2860;54.284;10.158;2023-05-16T13:21:25;7.30;;;1.00;;
5674;SDS011;2860;54.284;10.158;2023-05-16T13:23:53;7.07;;;1.17;;
5674;SDS011;2860;54.284;10.158;2023-05-16T13:26:19;7.65;;;1.30;;
5674;SDS011;2860;54.284;10.158;2023-05-16T13:28:46;9.38;;;1.05;;
5674;SDS011;2860;54.284;10.158;2023-05-16T13:31:15;11.13;;;1.67;;
5674;SDS011;2860;54.284;10.158;2023-05-16T13:33:41;7.68;;;1.13;;
5674;SDS011;2860;54.284;10.158;2023-05-16T13:36:06;4.38;;;0.95;;
5674;SDS011;2860;54.284;10.158;2023-05-16T13:38:32;4.93;;;0.90;;
5674;SDS011;2860;54.284;10.158;2023-05-16T13:40:57;3.08;;;1.30;;
5674;SDS011;2860;54.284;10.158;2023-05-16T13:43:23;4.80;;;0.98;;
5674;SDS011;2860;54.284;10.158;2023-05-16T13:45:48;10.50;;;1.90;;
5674;SDS011;2860;54.284;10.158;2023-05-16T13:48:14;2.60;;;1.02;;
5674;SDS011;2860;54.284;10.158;2023-05-16T13:50:39;3.65;;;1.45;;
5674;SDS011;2860;54.284;10.158;2023-05-16T13:53:06;5.22;;;1.00;;
5674;SDS011;2860;54.284;10.158;2023-05-16T13:55:32;9.23;;;1.17;;
5674;SDS011;2860;54.284;10.158;2023-05-16T13:57:57;2.92;;;1.13;;
5674;SDS011;2860;54.284;10.158;2023-05-16T14:00:24;5.72;;;1.17;;
5674;SDS011;2860;54.284;10.158;2023-05-16T14:02:50;3.03;;;1.15;;
5674;SDS011;2860;54.284;10.158;2023-05-16T14:05:16;3.00;;;1.15;;
5674;SDS011;2860;54.284;10.158;2023-05-16T14:07:42;5.22;;;1.00;;
5674;SDS011;2860;54.284;10.158;2023-05-16T14:10:08;3.72;;;0.98;;
5674;SDS011;2860;54.284;10.158;2023-05-16T14:12:34;3.00;;;1.33;;
5674;SDS011;2860;54.284;10.158;2023-05-16T14:14:59;6.13;;;1.83;;
5674;SDS011;2860;54.284;10.158;2023-05-16T14:17:25;2.75;;;0.90;;
5674;SDS011;2860;54.284;10.158;2023-05-16T14:19:51;2.63;;;0.60;;
5674;SDS011;2860;54.284;10.158;2023-05-16T14:22:17;7.90;;;0.88;;
5674;SDS011;2860;54.284;10.158;2023-05-16T14:24:43;6.07;;;1.17;;
5674;SDS011;2860;54.284;10.158;2023-05-16T14:27:08;4.30;;;1.58;;
5674;SDS011;2860;54.284;10.158;2023-05-16T14:29:34;3.03;;;1.27;;
5674;SDS011;2860;54.284;10.158;2023-05-16T14:32:00;4.53;;;1.00;;
5674;SDS011;2860;54.284;10.158;2023-05-16T14:34:25;3.22;;;1.20;;
5674;SDS011;2860;54.284;10.158;2023-05-16T14:36:51;1.73;;;1.10;;
5674;SDS011;2860;54.284;10.158;2023-05-16T14:39:17;2.28;;;1.23;;
5674;SDS011;2860;54.284;10.158;2023-05-16T14:41:42;4.30;;;0.98;;
5674;SDS011;2860;54.284;10.158;2023-05-16T14:44:08;5.55;;;1.27;;
5674;SDS011;2860;54.284;10.158;2023-05-16T14:46:33;5.32;;;1.15;;
5674;SDS011;2860;54.284;10.158;2023-05-16T14:48:59;5.00;;;1.42;;
5674;SDS011;2860;54.284;10.158;2023-05-16T14:51:25;4.60;;;1.00;;
5674;SDS011;2860;54.284;10.158;2023-05-16T14:53:50;9.25;;;1.33;;
5674;SDS011;2860;54.284;10.158;2023-05-16T14:56:16;6.95;;;1.30;;
5674;SDS011;2860;54.284;10.158;2023-05-16T14:58:41;5.20;;;0.95;;
5674;SDS011;2860;54.284;10.158;2023-05-16T15:01:07;4.35;;;1.60;;
5674;SDS011;2860;54.284;10.158;2023-05-16T15:03:32;2.97;;;1.73;;
5674;SDS011;2860;54.284;10.158;2023-05-16T15:05:58;7.68;;;1.80;;
5674;SDS011;2860;54.284;10.158;2023-05-16T15:08:24;5.40;;;1.95;;
5674;SDS011;2860;54.284;10.158;2023-05-16T15:10:49;6.60;;;1.50;;
5674;SDS011;2860;54.284;10.158;2023-05-16T15:13:15;2.80;;;1.95;;
5674;SDS011;2860;54.284;10.158;2023-05-16T15:15:41;5.38;;;2.00;;